Main page
METAR-TAF:

METAR-TAF

Airports :

Bisbee Douglas International Airport

Douglas / Bisbee, Arizona, United States

latitude: 31-28-09N, longitude: 109-36-13W, elevation: 1266 m

Current weather observation

The report was made 32 minutes ago, at 04:56 UTC
Wind 10 kt from the North/Northwest
Temperature 10°C
Humidity 62%
Pressure 1022 hPa
Visibility: 16.1 km
Clear sky

METAR: KDUG 010456Z AUTO 33010KT 10SM CLR 10/03 A3017 RMK AO2 SLP186 T01000033

Time: 22:28 (05:28 UTC)

Forecast

The report was made 6 hours and 8 minutes ago, at 23:20 UTC
Forecast valid from 01 at 00 UTC to 01 at 24 UTC
Wind 8 kt from the Northwest
Visibility: 10 km
Few clouds at a height of 5000 ft
From 01 at 0300 UTC
Wind 3 kt from variable directions
Visibility: 10 km
Clear sky
From 01 at 1800 UTC
Wind 7 kt from the West/Southwest
Visibility: 10 km
Clear sky

TAF: KDUG 292320Z 0100/0124 31008KT P6SM FEW050 FM010300 VRB03KT P6SM SKC FM011800 24007KT P6SM SKC

Weather observations and forecasts of more than 4000 airports (METAR and TAF reports).

The available stations are represented by yellow and red dots on the map.

Hover mouse over dot to see the name of the station.

Then click to see weather observations and forecasts.

To change the map : click on the green buttons with a black cross to zoom in, on the green button with a dash to zoom out, or on the green arrows for adjacent maps.


METAR-TAF: